createdAt,value
2018-03-31T00:15:08.340Z,93.36
2018-03-31T00:35:38.391Z,92.76
2018-03-31T00:56:10.588Z,93.74
2018-03-31T01:16:41.877Z,93.38
2018-03-31T01:37:14.990Z,93.33
2018-03-31T01:57:47.187Z,92.16
2018-03-31T02:18:17.238Z,92.92
2018-03-31T02:38:47.598Z,92.22
2018-03-31T03:17:23.309Z,92.45
2018-03-31T03:37:53.666Z,92.01
2018-03-31T03:58:25.860Z,93.17
2018-03-31T04:18:57.145Z,92.67
2018-03-31T04:39:26.272Z,90.34
2018-03-31T04:59:58.475Z,90.58
2018-03-31T05:20:34.016Z,91.34
2018-03-31T05:41:06.867Z,92.25
2018-03-31T06:01:38.144Z,92.14
2018-03-31T06:22:10.613Z,93.13
2018-03-31T06:42:42.541Z,93.07
2018-03-31T07:03:11.672Z,91.89
2018-03-31T07:23:46.955Z,92.51
2018-03-31T07:44:25.442Z,91.45
2018-03-31T08:05:03.744Z,91.85
2018-03-31T08:25:37.671Z,91.83
2018-03-31T08:46:09.196Z,91.25
2018-03-31T09:06:47.304Z,85.28
2018-03-31T09:27:15.190Z,80.88
2018-03-31T09:47:49.776Z,74.77
2018-03-31T10:08:25.733Z,65.19
2018-03-31T10:28:58.565Z,62.04
2018-03-31T10:49:30.395Z,56.57
2018-03-31T11:10:04.179Z,53.30
2018-03-31T11:30:36.382Z,52.13
2018-03-31T11:51:05.817Z,48.85
2018-03-31T12:11:37.111Z,50.98
2018-03-31T12:32:14.452Z,52.65
2018-03-31T12:52:49.688Z,49.99
2018-03-31T13:13:23.891Z,51.13
2018-03-31T13:33:59.102Z,50.20
2018-03-31T13:54:32.351Z,48.01
2018-03-31T14:15:07.632Z,46.54
2018-03-31T14:35:38.467Z,37.65
2018-03-31T14:56:20.041Z,38.28
2018-03-31T15:16:49.931Z,35.12
2018-03-31T15:37:21.210Z,34.12
2018-03-31T15:57:54.329Z,36.12
2018-03-31T16:18:26.527Z,36.69
2018-03-31T16:38:58.034Z,40.25
2018-03-31T16:59:29.200Z,43.18
2018-03-31T17:20:02.209Z,44.62
2018-03-31T17:40:33.601Z,49.96
2018-03-31T18:01:10.851Z,55.58
2018-03-31T18:21:45.105Z,58.71
2018-03-31T18:42:17.270Z,58.87
2018-03-31T19:02:47.232Z,62.95
2018-03-31T19:23:16.325Z,68.66
2018-03-31T19:43:48.524Z,71.33
2018-03-31T20:04:19.007Z,72.77
2018-03-31T20:24:52.218Z,75.53
2018-03-31T20:45:25.125Z,75.07
2018-03-31T21:05:56.406Z,76.43
2018-03-31T21:26:28.606Z,77.11
2018-03-31T21:47:01.723Z,78.05
2018-03-31T22:07:38.266Z,79.17
2018-03-31T22:28:10.464Z,79.34
2018-03-31T22:48:43.549Z,79.12
2018-03-31T23:09:13.594Z,79.47
2018-03-31T23:29:42.730Z,80.83
2018-03-31T23:50:13.700Z,81.32
